Time;durP1;ratioP1;P1;durP2;ratioP2;P2;SDS_P1;SDS_P2;PMS_P1;PMS_P2;Temp;Humidity;BMP_temperature;BMP_pressure;BME280_temperature;BME280_humidity;BME280_pressure;Samples;Min_cycle;Max_cycle;Signal;HPM_P1;HPM_P2
2022/10/01 00:00:25;;;;;;;31.92;30.52;;;;;;;9.97;100.00;100212.34;5053263;28;20569;-75
2022/10/01 00:02:53;;;;;;;34.15;32.75;;;;;;;9.86;100.00;100190.59;5049433;28;20052;-75
2022/10/01 00:05:19;;;;;;;36.03;34.38;;;;;;;9.92;100.00;100191.75;5050953;28;20037;-75
2022/10/01 00:07:45;;;;;;;34.60;33.10;;;;;;;9.97;100.00;100185.97;5050329;28;20060;-75
2022/10/01 00:10:12;;;;;;;36.28;34.65;;;;;;;9.91;100.00;100181.34;5056424;28;20029;-75
2022/10/01 00:12:45;;;;;;;39.90;38.22;;;;;;;9.87;100.00;100168.50;5048781;28;20097;-75
2022/10/01 00:15:12;;;;;;;39.88;38.03;;;;;;;9.85;100.00;100170.47;5053230;28;20029;-75
2022/10/01 00:17:37;;;;;;;39.85;38.17;;;;;;;9.83;100.00;100159.28;5050279;28;20721;-76
2022/10/01 00:20:05;;;;;;;37.13;35.35;;;;;;;9.82;100.00;100159.41;5039723;28;20025;-75
2022/10/01 00:22:32;;;;;;;40.47;38.80;;;;;;;9.81;100.00;100150.69;5047294;28;20644;-75
2022/10/01 00:25:01;;;;;;;43.45;41.60;;;;;;;9.73;100.00;100160.41;5048897;28;20024;-75
2022/10/01 00:27:27;;;;;;;37.95;35.80;;;;;;;9.71;100.00;100138.66;5040296;28;20459;-75
2022/10/01 00:29:53;;;;;;;39.78;37.58;;;;;;;9.75;100.00;100143.44;5044659;28;20127;-75
2022/10/01 00:32:19;;;;;;;58.03;55.75;;;;;;;9.65;100.00;100119.88;5055744;28;20111;-75
2022/10/01 00:34:44;;;;;;;48.78;46.70;;;;;;;9.60;100.00;100113.44;5053048;28;20760;-75
2022/10/01 00:37:10;;;;;;;53.85;51.47;;;;;;;9.71;100.00;100117.56;5055784;28;20032;-75
2022/10/01 00:39:35;;;;;;;47.97;45.55;;;;;;;9.70;100.00;100116.75;5051993;28;20028;-75
2022/10/01 00:42:03;;;;;;;45.20;43.20;;;;;;;9.69;100.00;100109.84;5050136;28;20381;-76
2022/10/01 00:44:36;;;;;;;57.20;54.83;;;;;;;9.68;100.00;100097.66;5046291;28;20594;-75
2022/10/01 00:47:03;;;;;;;47.58;45.63;;;;;;;9.64;100.00;100085.78;5052725;28;20024;-75
2022/10/01 00:49:32;;;;;;;63.45;60.72;;;;;;;9.51;100.00;100077.53;5056208;28;20051;-75
2022/10/01 00:52:03;;;;;;;49.72;47.63;;;;;;;9.65;100.00;100096.16;5051412;28;20012;-75
2022/10/01 00:54:51;;;;;;;50.60;48.47;;;;;;;9.63;100.00;100092.06;5048069;28;20562;-75
2022/10/01 00:57:21;;;;;;;47.75;45.80;;;;;;;9.65;100.00;100076.91;5047848;28;20331;-75
2022/10/01 00:59:48;;;;;;;54.65;52.47;;;;;;;9.64;100.00;100080.50;5046858;28;20388;-75
2022/10/01 01:02:14;;;;;;;55.20;52.83;;;;;;;9.63;100.00;100068.34;5044907;28;20049;-75
2022/10/01 01:04:40;;;;;;;57.83;55.30;;;;;;;9.62;100.00;100064.03;5051754;28;20523;-76
2022/10/01 01:07:07;;;;;;;54.90;52.63;;;;;;;9.60;100.00;100058.97;5049194;28;20039;-75
2022/10/01 01:09:37;;;;;;;52.72;50.38;;;;;;;9.51;100.00;100043.28;5058576;28;20029;-75
2022/10/01 01:12:17;;;;;;;67.85;65.13;;;;;;;9.56;100.00;100046.25;5058531;28;20790;-75
2022/10/01 01:15:18;;;;;;;51.72;49.33;;;;;;;9.57;100.00;100042.63;5053625;28;20029;-75
2022/10/01 01:17:53;;;;;;;58.28;55.85;;;;;;;9.55;100.00;100050.69;5053032;28;20075;-75
2022/10/01 01:20:43;;;;;;;53.25;51.08;;;;;;;9.46;100.00;100026.16;5052046;28;20441;-75
2022/10/01 01:23:30;;;;;;;60.83;58.03;;;;;;;9.55;100.00;100041.97;5060091;28;20048;-75
2022/10/01 01:25:58;;;;;;;85.55;82.03;;;;;;;9.53;100.00;100034.22;5055639;28;20074;-75
2022/10/01 01:28:30;;;;;;;60.35;57.65;;;;;;;9.54;100.00;100016.59;5051729;28;20155;-75
2022/10/01 01:30:59;;;;;;;54.90;52.60;;;;;;;9.53;100.00;100021.06;5056002;28;20085;-76
2022/10/01 01:33:29;;;;;;;55.33;52.85;;;;;;;9.53;100.00;100021.06;5050446;28;20162;-76
2022/10/01 01:35:59;;;;;;;87.95;84.18;;;;;;;9.53;100.00;100013.16;5057018;28;20056;-75
2022/10/01 01:38:33;;;;;;;61.97;59.38;;;;;;;9.50;100.00;99989.78;5052774;28;20033;-75
2022/10/01 01:41:01;;;;;;;57.83;55.30;;;;;;;9.48;100.00;99986.50;5055246;28;20517;-76
2022/10/01 01:43:32;;;;;;;53.33;51.08;;;;;;;9.47;100.00;99977.78;5055734;28;20059;-75
2022/10/01 01:45:58;;;;;;;;;;;;;;;9.47;100.00;99972.50;5056237;28;20037;-76
2022/10/01 01:48:27;;;;;;;45.20;43.17;;;;;;;9.48;100.00;99987.31;5055238;28;19956;-76
2022/10/01 01:51:02;;;;;;;44.22;42.33;;;;;;;9.52;100.00;99984.38;5052580;28;20021;-76
2022/10/01 01:53:31;;;;;;;64.22;61.47;;;;;;;9.51;100.00;99974.81;5051307;28;20027;-75
2022/10/01 01:55:59;;;;;;;87.95;84.35;;;;;;;9.47;100.00;99964.59;5051073;28;20029;-75
2022/10/01 01:58:26;;;;;;;86.68;83.30;;;;;;;9.39;100.00;99958.50;5057363;28;20033;-76
2022/10/01 02:00:52;;;;;;;80.55;77.32;;;;;;;9.40;100.00;99955.69;5052752;28;20036;-76
2022/10/01 02:03:21;;;;;;;63.60;60.40;;;;;;;9.35;100.00;99939.56;5052332;28;20049;-76
2022/10/01 02:06:41;;;;;;;67.80;64.97;;;;;;;9.39;100.00;99946.16;5053093;28;20099;-78
2022/10/01 02:09:31;;;;;;;47.67;45.78;;;;;;;9.34;100.00;99922.16;4962923;28;20580;-76
2022/10/01 02:12:16;;;;;;;53.85;51.60;;;;;;;9.25;100.00;99921.31;4990308;28;20038;-76
2022/10/01 02:15:07;;;;;;;61.90;59.55;;;;;;;9.30;100.00;99915.56;4990463;28;20033;-76
2022/10/01 02:17:51;;;;;;;53.67;51.53;;;;;;;9.39;100.00;99935.63;4993688;28;20041;-76
2022/10/01 02:20:25;;;;;;;58.58;56.17;;;;;;;9.39;100.00;99935.63;4992241;28;20039;-76
2022/10/01 02:22:55;;;;;;;56.28;53.85;;;;;;;9.29;100.00;99908.63;4988457;28;20037;-76
2022/10/01 02:25:25;;;;;;;50.17;47.97;;;;;;;9.39;100.00;99925.09;4992036;28;20038;-76
2022/10/01 02:28:07;;;;;;;57.92;55.60;;;;;;;9.22;100.00;99895.31;4989838;28;20045;-76
2022/10/01 02:30:36;;;;;;;53.35;50.97;;;;;;;9.41;100.00;99917.84;4982399;28;20448;-76
2022/10/01 02:33:04;;;;;;;59.90;57.47;;;;;;;9.42;100.00;99916.84;4991397;28;20041;-77
2022/10/01 02:35:31;;;;;;;55.05;52.83;;;;;;;9.42;100.00;99914.22;4973660;28;20030;-76
2022/10/01 02:38:00;;;;;;;50.50;48.40;;;;;;;9.46;100.00;99898.91;4980918;28;20037;-75
2022/10/01 02:40:29;;;;;;;51.53;49.42;;;;;;;9.45;100.00;99897.25;4986663;28;20064;-77
2022/10/01 02:43:18;;;;;;;53.30;51.17;;;;;;;9.46;100.00;99898.91;4972853;28;20050;-75
2022/10/01 02:45:48;;;;;;;52.38;50.15;;;;;;;9.45;100.00;99903.38;5026424;28;20043;-75
2022/10/01 02:48:16;;;;;;;49.03;47.00;;;;;;;9.47;100.00;99895.28;5051495;28;20040;-76
2022/10/01 02:50:50;;;;;;;53.17;51.03;;;;;;;9.45;100.00;99882.31;5050470;28;20123;-76
2022/10/01 02:53:20;;;;;;;121.85;116.40;;;;;;;9.41;100.00;99875.72;5056654;28;20083;-76
2022/10/01 02:55:47;;;;;;;71.50;68.70;;;;;;;9.42;100.00;99860.72;5051326;28;20069;-77
2022/10/01 02:58:13;;;;;;;49.97;47.65;;;;;;;9.42;100.00;99858.09;5051384;28;20526;-76
2022/10/01 03:00:38;;;;;;;68.80;65.95;;;;;;;9.32;100.00;99845.13;5049867;28;20036;-75
2022/10/01 03:03:04;;;;;;;51.65;49.65;;;;;;;9.43;100.00;99844.78;5051100;28;20186;-76
2022/10/01 03:05:29;;;;;;;59.80;57.47;;;;;;;9.41;100.00;99843.31;5042361;28;20043;-76
2022/10/01 03:07:55;;;;;;;49.63;47.72;;;;;;;9.34;100.00;99816.81;5053640;28;20035;-76
2022/10/01 03:10:20;;;;;;;53.95;51.72;;;;;;;9.48;100.00;99845.09;5050770;28;20025;-76
2022/10/01 03:12:46;;;;;;;53.00;50.83;;;;;;;9.49;100.00;99838.00;5043405;28;20021;-76
2022/10/01 03:15:13;;;;;;;53.25;51.20;;;;;;;9.49;100.00;99838.00;5051077;28;20036;-76
2022/10/01 03:17:38;;;;;;;59.60;57.40;;;;;;;9.39;100.00;99808.41;5053400;28;20086;-76
2022/10/01 03:20:05;;;;;;;53.17;50.97;;;;;;;9.45;100.00;99823.50;5050236;28;20028;-76
2022/10/01 03:22:31;;;;;;;49.13;47.22;;;;;;;9.52;100.00;99807.88;5049930;28;20099;-76
2022/10/01 03:24:57;;;;;;;49.30;47.40;;;;;;;9.55;100.00;99805.72;5050261;28;20141;-76
2022/10/01 03:27:22;;;;;;;54.88;52.70;;;;;;;9.54;100.00;99801.47;5055964;28;20505;-76
2022/10/01 03:29:48;;;;;;;52.40;50.35;;;;;;;9.50;100.00;99789.63;5050414;28;20029;-76
2022/10/01 03:32:14;;;;;;;79.65;76.75;;;;;;;9.53;100.00;99807.69;5051028;28;20048;-76
2022/10/01 03:34:40;;;;;;;51.38;49.38;;;;;;;9.58;100.00;99791.38;5051699;28;20460;-76
2022/10/01 03:37:06;;;;;;;48.72;46.78;;;;;;;9.54;100.00;99775.13;5051868;28;20119;-76
2022/10/01 03:39:32;;;;;;;56.63;54.33;;;;;;;9.60;100.00;99781.50;5059830;28;20032;-76
2022/10/01 03:41:57;;;;;;;49.75;47.88;;;;;;;9.59;100.00;99777.25;5054367;28;20039;-76
2022/10/01 03:44:23;;;;;;;60.33;57.83;;;;;;;9.51;100.00;99738.56;5050003;28;20029;-76
2022/10/01 03:46:48;;;;;;;81.07;77.70;;;;;;;9.52;100.00;99739.41;5035048;28;20506;-76
2022/10/01 03:49:13;;;;;;;49.92;47.92;;;;;;;9.70;100.00;99752.34;5033024;28;20052;-76
2022/10/01 03:51:39;;;;;;;47.40;45.58;;;;;;;9.56;100.00;99730.16;5051943;28;20059;-77
2022/10/01 03:54:06;;;;;;;52.72;50.72;;;;;;;9.72;100.00;99745.91;5033951;28;20040;-76
2022/10/01 03:56:33;;;;;;;63.58;61.13;;;;;;;9.69;100.00;99759.44;5056244;28;20064;-76
2022/10/01 03:58:58;;;;;;;48.35;46.60;;;;;;;9.78;100.00;99765.50;5035935;28;20028;-76
2022/10/01 04:01:24;;;;;;;49.70;47.83;;;;;;;9.81;100.00;99750.13;5054480;28;20052;-76
2022/10/01 04:03:50;;;;;;;50.65;48.78;;;;;;;9.81;100.00;99752.78;5048049;28;20047;-76
2022/10/01 04:06:16;;;;;;;51.17;49.28;;;;;;;9.82;100.00;99745.69;5057194;28;20024;-76
2022/10/01 04:08:42;;;;;;;49.67;47.88;;;;;;;9.86;100.00;99746.97;5053255;28;20089;-76
2022/10/01 04:11:07;;;;;;;48.70;46.88;;;;;;;9.86;100.00;99731.16;5057781;28;20042;-75
2022/10/01 04:13:33;;;;;;;46.67;44.85;;;;;;;9.89;100.00;99720.31;5048861;28;20079;-76
2022/10/01 04:16:00;;;;;;;62.15;59.83;;;;;;;9.82;100.00;99712.25;5049825;28;20549;-76
2022/10/01 04:18:25;;;;;;;51.33;49.38;;;;;;;9.93;100.00;99731.31;5051320;28;20111;-76
2022/10/01 04:20:51;;;;;;;95.25;91.55;;;;;;;9.91;100.00;99723.59;5054506;28;20517;-76
2022/10/01 04:23:16;;;;;;;71.45;68.75;;;;;;;9.94;100.00;99739.03;5044561;28;20059;-76
2022/10/01 04:25:42;;;;;;;51.55;49.70;;;;;;;9.97;100.00;99732.59;5049322;28;20696;-76
2022/10/01 04:28:10;;;;;;;87.65;84.18;;;;;;;9.96;100.00;99725.69;5052772;28;20039;-77
2022/10/01 04:30:38;;;;;;;48.58;46.78;;;;;;;9.81;100.00;99701.88;5050546;28;20372;-76
2022/10/01 04:33:05;;;;;;;105.55;101.10;;;;;;;9.97;100.00;99740.50;5051223;28;20031;-76
2022/10/01 04:35:31;;;;;;;45.85;44.10;;;;;;;9.95;100.00;99716.97;5051518;28;20716;-76
2022/10/01 04:38:02;;;;;;;43.50;41.83;;;;;;;10.02;100.00;99732.91;5033712;28;20039;-76
2022/10/01 04:40:28;;;;;;;;;;;;;;;10.05;100.00;99738.66;5050120;28;20769;-76
2022/10/01 04:42:53;;;;;;;28.63;27.50;;;;;;;10.06;100.00;99736.81;5049925;28;19921;-77
2022/10/01 04:45:19;;;;;;;32.65;31.45;;;;;;;10.09;100.00;99736.50;5051369;28;20430;-76
2022/10/01 04:47:52;;;;;;;61.55;59.00;;;;;;;10.08;100.00;99734.84;5053684;28;20044;-76
2022/10/01 04:50:18;;;;;;;36.80;35.47;;;;;;;10.05;100.00;99719.38;5052244;28;20069;-76
2022/10/01 04:52:45;;;;;;;59.33;57.20;;;;;;;10.08;100.00;99719.00;5037362;28;20029;-77
2022/10/01 04:55:11;;;;;;;63.05;60.72;;;;;;;10.16;100.00;99732.16;5053780;28;20131;-76
2022/10/01 04:57:40;;;;;;;60.25;57.95;;;;;;;10.18;100.00;99735.44;5052332;28;20091;-76
2022/10/01 05:00:08;;;;;;;77.22;74.32;;;;;;;10.13;100.00;99721.97;5053547;28;20040;-76
2022/10/01 05:02:34;;;;;;;41.75;40.20;;;;;;;10.08;100.00;99717.22;5055999;28;20055;-76
2022/10/01 05:05:04;;;;;;;41.00;39.42;;;;;;;10.24;100.00;99740.03;5037980;28;20024;-76
2022/10/01 05:07:30;;;;;;;40.45;38.70;;;;;;;10.26;100.00;99743.31;5053843;28;20032;-76
2022/10/01 05:09:57;;;;;;;44.20;42.58;;;;;;;10.32;100.00;99740.97;5047683;28;20054;-76
2022/10/01 05:12:24;;;;;;;35.45;34.08;;;;;;;10.36;100.00;99735.19;5054118;28;20028;-76
2022/10/01 05:14:54;;;;;;;40.40;38.88;;;;;;;10.38;100.00;99720.00;5055326;28;20028;-76
2022/10/01 05:17:20;;;;;;;38.97;37.55;;;;;;;10.43;100.00;99730.88;5054209;28;20060;-76
2022/10/01 05:19:46;;;;;;;51.55;49.63;;;;;;;10.42;100.00;99736.31;5053571;28;20047;-76
2022/10/01 05:22:12;;;;;;;40.15;38.58;;;;;;;10.37;100.00;99722.84;5050668;28;20036;-76
2022/10/01 05:24:38;;;;;;;41.17;39.53;;;;;;;10.44;100.00;99740.41;5051103;28;20479;-77
2022/10/01 05:27:04;;;;;;;37.00;35.67;;;;;;;10.49;100.00;99734.59;5053445;28;20886;-77
2022/10/01 05:29:30;;;;;;;44.03;42.40;;;;;;;10.50;100.00;99744.16;5053388;28;20033;-76
2022/10/01 05:31:57;;;;;;;39.25;37.83;;;;;;;10.49;100.00;99759.19;5056737;28;20044;-78
2022/10/01 05:34:22;;;;;;;98.20;94.38;;;;;;;10.52;100.00;99760.63;5059631;28;20479;-76
2022/10/01 05:36:47;;;;;;;40.25;38.13;;;;;;;10.51;100.00;99756.34;5056839;28;20051;-78
2022/10/01 05:39:13;;;;;;;41.75;40.20;;;;;;;10.53;100.00;99756.19;5052775;28;20021;-76
2022/10/01 05:41:39;;;;;;;39.83;38.35;;;;;;;10.52;100.00;99765.91;5053243;28;20053;-76
2022/10/01 05:44:06;;;;;;;34.00;32.67;;;;;;;10.39;100.00;99742.75;5047088;28;20044;-77
2022/10/01 05:46:31;;;;;;;32.40;31.17;;;;;;;10.53;100.00;99774.66;5073941;28;20074;-76
2022/10/01 05:48:57;;;;;;;32.78;31.52;;;;;;;10.51;100.00;99777.44;5059126;28;20807;-78
2022/10/01 05:51:23;;;;;;;34.00;32.75;;;;;;;10.36;100.00;99747.56;5057855;28;20028;-76
2022/10/01 05:53:48;;;;;;;32.88;31.70;;;;;;;10.57;100.00;99779.41;5043975;28;20526;-77
2022/10/01 05:56:14;;;;;;;34.63;33.35;;;;;;;10.63;100.00;99786.59;5050637;28;20025;-77
2022/10/01 05:58:39;;;;;;;40.45;38.88;;;;;;;10.61;100.00;99778.03;5050439;28;20059;-76
2022/10/01 06:01:05;;;;;;;39.30;37.85;;;;;;;10.70;100.00;99787.53;5052696;28;20033;-74
2022/10/01 06:03:31;;;;;;;33.88;32.50;;;;;;;10.68;100.00;99784.25;5042862;28;20055;-75
2022/10/01 06:05:56;;;;;;;35.90;34.53;;;;;;;10.64;100.00;99777.69;5054616;28;20214;-75
2022/10/01 06:08:22;;;;;;;63.50;61.15;;;;;;;10.75;100.00;99809.94;5050675;28;20600;-75
2022/10/01 06:10:48;;;;;;;38.75;37.25;;;;;;;10.77;100.00;99813.22;5052860;28;20787;-75
2022/10/01 06:13:19;;;;;;;41.60;40.10;;;;;;;10.80;100.00;99807.59;5060756;28;20025;-75
2022/10/01 06:15:45;;;;;;;34.17;32.88;;;;;;;10.81;100.00;99804.78;5052491;28;20067;-75
2022/10/01 06:18:11;;;;;;;43.03;41.40;;;;;;;10.80;100.00;99818.13;5054003;28;20032;-75
2022/10/01 06:20:39;;;;;;;55.22;53.20;;;;;;;10.79;100.00;99811.22;5053582;28;20131;-78
2022/10/01 06:23:10;;;;;;;50.00;47.70;;;;;;;10.83;100.00;99820.44;5051914;28;20025;-74
2022/10/01 06:25:37;;;;;;;45.50;43.77;;;;;;;10.85;100.00;99810.53;5049102;28;20042;-76
2022/10/01 06:28:04;;;;;;;41.17;39.65;;;;;;;10.92;100.00;99819.38;5055228;28;20287;-75
2022/10/01 06:30:31;;;;;;;42.20;40.65;;;;;;;10.99;100.00;99828.22;5051108;28;20579;-74
2022/10/01 06:33:09;;;;;;;41.33;39.72;;;;;;;11.02;100.00;99838.44;5046657;28;20021;-74
2022/10/01 06:35:40;;;;;;;38.72;37.28;;;;;;;11.04;100.00;99832.97;5049353;28;20520;-74
2022/10/01 06:38:06;;;;;;;40.65;39.08;;;;;;;10.95;100.00;99816.38;5048445;28;20385;-76
2022/10/01 06:40:32;;;;;;;38.80;37.17;;;;;;;11.08;100.00;99837.75;5049092;28;20028;-76
2022/10/01 06:42:58;;;;;;;41.83;40.15;;;;;;;11.17;100.00;99845.56;5051747;28;20037;-75
2022/10/01 06:45:28;;;;;;;39.00;37.42;;;;;;;11.26;100.00;99855.09;5051415;28;20025;-75
2022/10/01 06:48:04;;;;;;;38.90;37.40;;;;;;;11.24;100.00;99846.53;5048555;28;20040;-75
2022/10/01 06:50:33;;;;;;;38.83;37.28;;;;;;;11.35;100.00;99861.13;5053070;28;20082;-75
2022/10/01 06:52:59;;;;;;;43.83;42.00;;;;;;;11.37;100.00;99856.47;5046870;28;20553;-75
2022/10/01 06:55:28;;;;;;;40.75;39.17;;;;;;;11.30;100.00;99848.41;5053152;28;20037;-75
2022/10/01 06:57:58;;;;;;;42.40;40.80;;;;;;;11.48;100.00;99863.97;5048039;28;20490;-75
2022/10/01 07:00:25;;;;;;;38.83;37.33;;;;;;;11.56;100.00;99865.69;5050133;28;20079;-75
2022/10/01 07:02:50;;;;;;;39.22;37.72;;;;;;;11.53;100.00;99866.88;5042334;28;20597;-75
2022/10/01 07:05:16;;;;;;;39.13;37.67;;;;;;;11.65;100.00;99875.16;5052230;28;20032;-75
2022/10/01 07:07:43;;;;;;;45.47;43.42;;;;;;;11.76;100.00;99877.38;5055749;28;20025;-76
2022/10/01 07:10:10;;;;;;;43.13;41.47;;;;;;;11.82;100.00;99881.13;5049232;28;20029;-75
2022/10/01 07:12:36;;;;;;;41.47;39.65;;;;;;;11.93;100.00;99876.25;5049746;28;20562;-75
2022/10/01 07:15:04;;;;;;;42.75;41.05;;;;;;;12.00;100.00;99878.13;5045858;28;20035;-75
2022/10/01 07:17:30;;;;;;;42.75;41.10;;;;;;;12.02;100.00;99892.00;5052851;28;20036;-75
2022/10/01 07:19:55;;;;;;;53.90;51.80;;;;;;;12.08;100.00;99892.09;5053801;28;20028;-76
2022/10/01 07:22:23;;;;;;;46.28;44.38;;;;;;;12.23;100.00;99899.19;5053189;28;20048;-76
2022/10/01 07:24:49;;;;;;;49.13;46.83;;;;;;;12.30;100.00;99889.50;5052676;28;20043;-76
2022/10/01 07:27:14;;;;;;;46.10;43.95;;;;;;;12.46;100.00;99899.09;5045593;28;20116;-75
2022/10/01 07:29:40;;;;;;;43.10;41.50;;;;;;;12.62;100.00;99908.63;5050424;28;20371;-77
2022/10/01 07:32:08;;;;;;;49.88;47.40;;;;;;;12.61;100.00;99891.94;5046254;28;20037;-75
2022/10/01 07:34:35;;;;;;;50.55;48.47;;;;;;;12.76;100.00;99900.66;5051228;28;20035;-76
2022/10/01 07:37:02;;;;;;;46.40;44.40;;;;;;;12.85;100.00;99892.59;5047281;28;20090;-75
2022/10/01 07:39:27;;;;;;;46.20;44.47;;;;;;;12.99;100.00;99907.59;5046763;28;20732;-75
2022/10/01 07:41:52;;;;;;;44.05;42.20;;;;;;;13.24;100.00;99907.22;5051869;28;20032;-76
2022/10/01 07:44:18;;;;;;;41.35;39.58;;;;;;;13.25;100.00;99908.88;5050013;28;20194;-76
2022/10/01 07:46:45;;;;;;;39.75;38.20;;;;;;;13.29;100.00;99902.22;5050013;28;20033;-76
2022/10/01 07:49:10;;;;;;;56.65;54.03;;;;;;;14.03;100.00;99911.50;5058531;28;20039;-76
2022/10/01 07:51:36;;;;;;;46.85;44.78;;;;;;;14.70;100.00;99900.19;5051142;28;20551;-75
2022/10/01 07:54:02;;;;;;;35.03;33.15;;;;;;;15.74;100.00;99898.88;5047111;28;20051;-76
2022/10/01 07:56:28;;;;;;;16.92;16.13;;;;;;;16.43;100.00;99897.44;5033014;28;20025;-75
2022/10/01 07:58:55;;;;;;;13.90;12.75;;;;;;;17.34;100.00;99895.47;5050495;28;20028;-76
2022/10/01 08:01:20;;;;;;;10.77;10.38;;;;;;;18.24;100.00;99902.22;5042706;28;20112;-76
2022/10/01 08:03:49;;;;;;;4.85;4.28;;;;;;;18.67;94.95;99907.44;5053207;28;20063;-76
2022/10/01 08:06:17;;;;;;;4.70;3.58;;;;;;;19.35;89.95;99908.13;5046607;28;20028;-77
2022/10/01 08:08:42;;;;;;;4.00;3.78;;;;;;;20.18;90.30;99913.47;5051212;28;20033;-76
2022/10/01 08:11:09;;;;;;;3.65;3.00;;;;;;;20.69;84.26;99901.13;5049845;28;20057;-76
2022/10/01 08:13:35;;;;;;;5.10;3.17;;;;;;;21.42;79.47;99907.50;5044364;28;20028;-76
2022/10/01 08:16:04;;;;;;;4.18;2.42;;;;;;;22.07;79.63;99916.75;5039998;28;20075;-76
2022/10/01 08:18:30;;;;;;;2.83;2.08;;;;;;;21.90;78.93;99924.03;5046728;28;20070;-77
2022/10/01 08:20:57;;;;;;;7.15;2.10;;;;;;;22.40;74.07;99931.19;5050485;28;20036;-76
2022/10/01 08:23:23;;;;;;;3.50;1.95;;;;;;;22.99;76.70;99943.91;5054854;28;20055;-76
2022/10/01 08:25:48;;;;;;;4.65;2.10;;;;;;;23.80;71.40;99937.63;5050765;28;20040;-76
2022/10/01 08:28:15;;;;;;;2.75;1.77;;;;;;;24.09;70.61;99935.38;5051294;28;20036;-77
2022/10/01 08:30:41;;;;;;;3.13;1.75;;;;;;;23.43;68.46;99949.22;5048576;28;20040;-76
2022/10/01 08:33:09;;;;;;;4.78;1.90;;;;;;;23.77;69.81;99941.66;5052812;28;20894;-76
2022/10/01 08:35:37;;;;;;;4.18;1.90;;;;;;;23.84;67.87;99949.50;5050486;28;20052;-76
2022/10/01 08:38:04;;;;;;;3.13;1.90;;;;;;;24.12;68.83;99956.41;5056247;28;20037;-76
2022/10/01 08:40:35;;;;;;;3.75;1.77;;;;;;;25.03;66.94;99965.94;5058662;28;20024;-76
2022/10/01 08:43:33;;;;;;;2.78;1.90;;;;;;;26.09;64.18;99949.22;5056293;28;20036;-77
2022/10/01 08:46:13;;;;;;;2.92;1.88;;;;;;;26.65;60.65;99973.38;5048177;28;20037;-76
2022/10/01 08:49:01;;;;;;;3.35;1.45;;;;;;;26.14;61.01;99967.31;5051907;28;20028;-76
2022/10/01 08:51:42;;;;;;;3.45;1.98;;;;;;;26.67;58.47;99963.06;5046869;28;20029;-76
2022/10/01 08:54:27;;;;;;;3.53;1.70;;;;;;;26.82;58.60;99974.88;5052199;28;20028;-76
2022/10/01 08:56:55;;;;;;;4.18;2.17;;;;;;;26.78;58.56;99968.41;5050500;28;20051;-76
2022/10/01 08:59:38;;;;;;;5.07;1.60;;;;;;;27.38;58.16;99981.88;5046712;28;20060;-76
2022/10/01 09:02:23;;;;;;;2.10;1.63;;;;;;;27.85;56.55;99977.66;5060635;28;20048;-77
2022/10/01 09:04:53;;;;;;;2.20;1.92;;;;;;;28.87;55.35;99981.09;5050885;28;20100;-76
2022/10/01 09:07:21;;;;;;;;;;;;;;;29.06;54.01;99981.13;5050959;28;20037;-76
2022/10/01 09:09:59;;;;;;;2.83;1.77;;;;;;;29.47;54.46;99972.34;5050096;28;20489;-76
2022/10/01 09:12:37;;;;;;;3.80;1.98;;;;;;;29.92;51.75;99978.09;5058189;28;20047;-76
2022/10/01 09:15:46;;;;;;;5.72;2.88;;;;;;;27.58;54.97;99978.19;5047458;28;20123;-77
2022/10/01 09:18:52;;;;;;;4.63;2.10;;;;;;;23.70;62.70;99968.00;5049618;28;20045;-76
2022/10/01 09:21:26;;;;;;;2.45;2.20;;;;;;;22.75;66.70;99967.63;5010303;28;20124;-76
2022/10/01 09:23:52;;;;;;;5.38;3.03;;;;;;;22.14;69.34;99987.25;5010693;28;20037;-76
2022/10/01 09:26:17;;;;;;;4.20;2.67;;;;;;;21.56;71.06;99965.19;5016163;28;20048;-76
2022/10/01 09:28:52;;;;;;;6.78;3.55;;;;;;;19.82;76.58;99966.28;5007172;28;20353;-76
2022/10/01 09:31:28;;;;;;;6.35;5.30;;;;;;;19.49;79.56;99997.03;5006578;28;20029;-76
2022/10/01 09:34:07;;;;;;;7.93;7.43;;;;;;;19.34;80.33;99997.47;5012470;28;20116;-76
2022/10/01 09:36:40;;;;;;;13.77;13.10;;;;;;;21.79;77.88;99998.28;5007128;28;20041;-76
2022/10/01 09:39:30;;;;;;;4.35;4.10;;;;;;;24.19;66.04;100002.00;5007358;28;20049;-76
2022/10/01 09:41:56;;;;;;;2.78;2.50;;;;;;;25.76;61.41;100010.88;5005352;28;20052;-76
2022/10/01 09:44:27;;;;;;;3.70;2.05;;;;;;;27.34;56.28;100016.84;5010820;28;20041;-76
2022/10/01 09:46:54;;;;;;;4.40;1.80;;;;;;;28.53;53.35;100020.13;5009262;28;20037;-76
2022/10/01 09:49:33;;;;;;;6.93;2.00;;;;;;;27.15;53.25;100030.19;5009100;28;20037;-76
2022/10/01 09:52:09;;;;;;;1.70;1.43;;;;;;;27.93;53.78;100038.63;4995961;28;20136;-77
2022/10/01 09:54:47;;;;;;;2.45;1.88;;;;;;;29.18;50.30;100024.16;5014684;28;20363;-76
2022/10/01 09:57:35;;;;;;;4.53;1.70;;;;;;;28.94;51.11;100030.47;5000365;28;20040;-76
2022/10/01 10:00:19;;;;;;;3.75;1.88;;;;;;;29.93;51.14;100045.00;5037752;28;20527;-77
2022/10/01 10:02:49;;;;;;;2.00;1.40;;;;;;;28.66;51.27;100051.97;5047001;28;20056;-76
2022/10/01 10:05:20;;;;;;;2.10;2.00;;;;;;;27.08;54.63;100071.13;5047819;28;20025;-77
2022/10/01 10:07:48;;;;;;;3.13;1.77;;;;;;;25.40;57.71;100058.66;5051252;28;20692;-77
2022/10/01 10:10:27;;;;;;;2.58;2.00;;;;;;;23.50;60.93;100073.69;5046586;28;20024;-76
2022/10/01 10:12:56;;;;;;;2.42;1.65;;;;;;;22.20;63.63;100066.09;5046270;28;20025;-76
2022/10/01 10:15:25;;;;;;;2.45;2.25;;;;;;;21.65;68.96;100072.19;5045208;28;20052;-76
2022/10/01 10:17:51;;;;;;;3.47;3.17;;;;;;;20.96;71.29;100062.28;5046820;28;20071;-76
2022/10/01 10:20:37;;;;;;;4.68;4.45;;;;;;;20.78;71.76;100082.03;5048307;28;20118;-77
2022/10/01 10:23:17;;;;;;;7.20;6.72;;;;;;;20.82;71.56;100072.47;5041682;28;20029;-76
2022/10/01 10:25:43;;;;;;;6.95;6.65;;;;;;;20.73;71.49;100096.16;5044438;28;20064;-76
2022/10/01 10:28:19;;;;;;;7.38;6.97;;;;;;;20.67;71.59;100104.31;5047074;28;20494;-76
2022/10/01 10:30:46;;;;;;;10.50;9.93;;;;;;;20.38;73.41;100084.59;5046080;28;20052;-76
2022/10/01 10:33:13;;;;;;;9.35;8.80;;;;;;;20.51;73.04;100106.63;5044848;28;20033;-76
2022/10/01 10:35:39;;;;;;;10.73;10.20;;;;;;;20.12;73.90;100087.50;5046228;28;20036;-76
2022/10/01 10:38:05;;;;;;;11.45;10.85;;;;;;;20.10;73.76;100105.66;5046486;28;20541;-76
2022/10/01 10:40:40;;;;;;;10.73;10.13;;;;;;;19.80;75.25;100123.66;5044331;28;20098;-76
2022/10/01 10:43:14;;;;;;;14.30;13.73;;;;;;;19.46;76.49;100123.25;5048824;28;20017;-76
2022/10/01 10:45:45;;;;;;;15.90;15.13;;;;;;;18.88;78.22;100113.88;5048066;28;20040;-75
2022/10/01 10:48:16;;;;;;;20.65;19.73;;;;;;;18.24;79.30;100095.31;5046386;28;20028;-76
2022/10/01 10:50:44;;;;;;;24.52;23.33;;;;;;;17.64;80.97;100127.78;5044807;28;20025;-76
2022/10/01 10:53:21;;;;;;;27.92;26.67;;;;;;;16.55;85.18;100131.16;5049322;28;20023;-75
2022/10/01 10:55:54;;;;;;;36.20;34.83;;;;;;;16.28;86.05;100125.84;5045074;28;20029;-76
2022/10/01 10:58:24;;;;;;;43.72;42.13;;;;;;;16.25;86.79;100123.59;5048591;28;20036;-75
2022/10/01 11:00:50;;;;;;;49.78;48.00;;;;;;;16.01;88.68;100141.81;5047623;28;20036;-75
2022/10/01 11:03:19;;;;;;;44.83;42.95;;;;;;;15.70;89.88;100147.66;5044502;28;20045;-76
2022/10/01 11:05:50;;;;;;;38.65;37.28;;;;;;;15.51;92.04;100149.22;5042858;28;20024;-75
2022/10/01 11:08:24;;;;;;;30.13;29.00;;;;;;;15.60;94.04;100142.72;5041223;28;20396;-75
2022/10/01 11:10:56;;;;;;;27.75;26.60;;;;;;;15.77;93.72;100147.72;5046081;28;20464;-80
2022/10/01 11:13:36;;;;;;;31.05;29.55;;;;;;;15.94;93.11;100151.63;5057357;28;20027;-76
2022/10/01 11:16:39;;;;;;;35.05;33.75;;;;;;;16.02;93.26;100150.59;5041260;28;20017;-75
2022/10/01 11:19:14;;;;;;;32.42;31.20;;;;;;;15.86;93.58;100165.13;5046016;28;20021;-76
2022/10/01 11:22:03;;;;;;;36.80;35.35;;;;;;;15.70;94.70;100168.09;5048067;28;20052;-76
2022/10/01 11:24:41;;;;;;;32.78;31.52;;;;;;;15.86;94.78;100167.78;5043869;28;20029;-75
2022/10/01 11:27:21;;;;;;;34.60;33.20;;;;;;;15.82;95.21;100158.56;5046741;28;20062;-76
2022/10/01 11:30:08;;;;;;;33.83;31.92;;;;;;;16.63;95.20;100173.56;5041472;28;20067;-76